sensor_id;sensor_type;location;lat;lon;timestamp;pressure;altitude;pressure_sealevel;temperature;humidity
54900;BME280;40801;41.924;25.562;2023-02-11T00:00:22;101472.75;;;-3.91;55.91
54900;BME280;40801;41.924;25.562;2023-02-11T00:02:47;101472.41;;;-3.96;56.32
54900;BME280;40801;41.924;25.562;2023-02-11T00:05:13;101469.94;;;-3.97;55.96
54900;BME280;40801;41.924;25.562;2023-02-11T00:07:38;101476.03;;;-3.97;55.73
54900;BME280;40801;41.924;25.562;2023-02-11T00:10:04;101475.03;;;-3.96;56.00
54900;BME280;40801;41.924;25.562;2023-02-11T00:12:36;101471.94;;;-3.91;56.02
54900;BME280;40801;41.924;25.562;2023-02-11T00:15:03;101473.22;;;-3.95;55.84
54900;BME280;40801;41.924;25.562;2023-02-11T00:17:29;101476.50;;;-4.01;56.52
54900;BME280;40801;41.924;25.562;2023-02-11T00:19:54;101475.88;;;-3.95;55.78
54900;BME280;40801;41.924;25.562;2023-02-11T00:22:20;101480.16;;;-3.94;56.05
54900;BME280;40801;41.924;25.562;2023-02-11T00:24:45;101467.63;;;-3.92;55.98
54900;BME280;40801;41.924;25.562;2023-02-11T00:27:11;101474.25;;;-3.88;55.51
54900;BME280;40801;41.924;25.562;2023-02-11T00:29:37;101481.16;;;-3.87;55.60
54900;BME280;40801;41.924;25.562;2023-02-11T00:32:03;101480.84;;;-3.84;55.53
54900;BME280;40801;41.924;25.562;2023-02-11T00:34:33;101473.75;;;-3.92;55.82
54900;BME280;40801;41.924;25.562;2023-02-11T00:36:58;101471.59;;;-3.96;56.22
54900;BME280;40801;41.924;25.562;2023-02-11T00:39:24;101480.16;;;-3.94;55.63
54900;BME280;40801;41.924;25.562;2023-02-11T00:41:49;101470.09;;;-3.99;55.75
54900;BME280;40801;41.924;25.562;2023-02-11T00:44:15;101473.38;;;-3.97;55.72
54900;BME280;40801;41.924;25.562;2023-02-11T00:46:40;101473.38;;;-3.97;56.00
54900;BME280;40801;41.924;25.562;2023-02-11T00:49:06;101462.50;;;-4.02;56.19
54900;BME280;40801;41.924;25.562;2023-02-11T00:51:31;101464.94;;;-4.09;56.27
54900;BME280;40801;41.924;25.562;2023-02-11T00:53:57;101470.34;;;-4.10;56.62
54900;BME280;40801;41.924;25.562;2023-02-11T00:56:23;101469.34;;;-4.17;56.74
54900;BME280;40801;41.924;25.562;2023-02-11T00:58:48;101473.50;;;-4.07;55.75
54900;BME280;40801;41.924;25.562;2023-02-11T01:01:13;101474.31;;;-4.06;55.64
54900;BME280;40801;41.924;25.562;2023-02-11T01:03:39;101473.16;;;-4.12;56.10
54900;BME280;40801;41.924;25.562;2023-02-11T01:06:06;101476.25;;;-4.16;56.26
54900;BME280;40801;41.924;25.562;2023-02-11T01:08:32;101477.88;;;-4.23;56.46
54900;BME280;40801;41.924;25.562;2023-02-11T01:11:01;101470.16;;;-4.17;55.68
54900;BME280;40801;41.924;25.562;2023-02-11T01:13:29;101470.13;;;-4.25;56.55
54900;BME280;40801;41.924;25.562;2023-02-11T01:15:55;101470.59;;;-4.29;56.41
54900;BME280;40801;41.924;25.562;2023-02-11T01:18:20;101460.91;;;-4.29;56.40
54900;BME280;40801;41.924;25.562;2023-02-11T01:20:46;101456.31;;;-4.19;55.21
54900;BME280;40801;41.924;25.562;2023-02-11T01:23:11;101461.28;;;-4.16;55.29
54900;BME280;40801;41.924;25.562;2023-02-11T01:25:37;101464.41;;;-4.12;55.34
54900;BME280;40801;41.924;25.562;2023-02-11T01:28:02;101457.50;;;-4.13;55.74
54900;BME280;40801;41.924;25.562;2023-02-11T01:30:27;101451.25;;;-4.12;55.30
54900;BME280;40801;41.924;25.562;2023-02-11T01:32:53;101451.59;;;-4.07;55.04
54900;BME280;40801;41.924;25.562;2023-02-11T01:35:18;101458.81;;;-4.09;55.17
54900;BME280;40801;41.924;25.562;2023-02-11T01:37:44;101453.34;;;-4.24;56.32
54900;BME280;40801;41.924;25.562;2023-02-11T01:40:13;101448.72;;;-4.30;56.56
54900;BME280;40801;41.924;25.562;2023-02-11T01:42:38;101452.19;;;-4.21;55.56
54900;BME280;40801;41.924;25.562;2023-02-11T01:48:08;101440.97;;;-4.31;56.21
54900;BME280;40801;41.924;25.562;2023-02-11T01:50:37;101433.16;;;-4.41;56.52
54900;BME280;40801;41.924;25.562;2023-02-11T01:53:05;101435.28;;;-4.45;57.00
54900;BME280;40801;41.924;25.562;2023-02-11T01:55:50;101450.56;;;-4.48;57.10
54900;BME280;40801;41.924;25.562;2023-02-11T01:58:37;101445.63;;;-4.51;56.84
54900;BME280;40801;41.924;25.562;2023-02-11T02:01:06;101443.50;;;-4.48;56.64
54900;BME280;40801;41.924;25.562;2023-02-11T02:03:36;101437.25;;;-4.47;56.36
54900;BME280;40801;41.924;25.562;2023-02-11T02:06:18;101432.34;;;-4.42;55.83
54900;BME280;40801;41.924;25.562;2023-02-11T02:09:21;101441.53;;;-4.46;56.91
54900;BME280;40801;41.924;25.562;2023-02-11T02:11:44;101435.94;;;-4.43;56.46
54900;BME280;40801;41.924;25.562;2023-02-11T02:14:09;101430.53;;;-4.41;55.88
54900;BME280;40801;41.924;25.562;2023-02-11T02:16:35;101435.78;;;-4.41;56.01
54900;BME280;40801;41.924;25.562;2023-02-11T02:25:33;101443.31;;;-4.54;57.48
54900;BME280;40801;41.924;25.562;2023-02-11T02:30:48;101453.16;;;-4.56;56.90
54900;BME280;40801;41.924;25.562;2023-02-11T02:33:24;101444.44;;;-4.57;56.74
54900;BME280;40801;41.924;25.562;2023-02-11T02:36:04;101448.81;;;-4.65;57.83
54900;BME280;40801;41.924;25.562;2023-02-11T02:41:12;101448.97;;;-4.67;57.21
54900;BME280;40801;41.924;25.562;2023-02-11T02:43:43;101450.31;;;-4.63;56.71
54900;BME280;40801;41.924;25.562;2023-02-11T02:48:46;101436.63;;;-4.67;56.64
54900;BME280;40801;41.924;25.562;2023-02-11T03:05:17;101449.44;;;-4.72;56.66
54900;BME280;40801;41.924;25.562;2023-02-11T03:07:51;101443.38;;;-4.64;55.29
54900;BME280;40801;41.924;25.562;2023-02-11T03:10:34;101435.50;;;-4.64;56.04
54900;BME280;40801;41.924;25.562;2023-02-11T03:13:02;101444.38;;;-4.65;55.58
54900;BME280;40801;41.924;25.562;2023-02-11T03:15:31;101439.53;;;-4.78;56.37
54900;BME280;40801;41.924;25.562;2023-02-11T03:17:59;101440.31;;;-4.85;56.80
54900;BME280;40801;41.924;25.562;2023-02-11T03:20:29;101437.44;;;-4.92;57.02
54900;BME280;40801;41.924;25.562;2023-02-11T03:23:11;101441.28;;;-4.86;56.73
54900;BME280;40801;41.924;25.562;2023-02-11T03:25:49;101435.44;;;-4.98;57.47
54900;BME280;40801;41.924;25.562;2023-02-11T03:28:41;101438.81;;;-5.06;58.06
54900;BME280;40801;41.924;25.562;2023-02-11T03:31:26;101444.25;;;-5.07;58.09
54900;BME280;40801;41.924;25.562;2023-02-11T03:36:48;101439.25;;;-4.92;56.01
54900;BME280;40801;41.924;25.562;2023-02-11T03:39:24;101432.88;;;-4.90;56.02
54900;BME280;40801;41.924;25.562;2023-02-11T03:41:53;101433.03;;;-4.91;56.50
54900;BME280;40801;41.924;25.562;2023-02-11T03:44:20;101430.31;;;-5.00;57.01
54900;BME280;40801;41.924;25.562;2023-02-11T03:46:49;101428.91;;;-5.12;57.70
54900;BME280;40801;41.924;25.562;2023-02-11T03:49:17;101423.13;;;-5.15;57.43
54900;BME280;40801;41.924;25.562;2023-02-11T03:51:45;101429.22;;;-5.15;57.52
54900;BME280;40801;41.924;25.562;2023-02-11T03:54:14;101430.56;;;-5.11;57.25
54900;BME280;40801;41.924;25.562;2023-02-11T03:56:48;101415.94;;;-5.13;57.84
54900;BME280;40801;41.924;25.562;2023-02-11T03:59:15;101426.91;;;-5.18;57.83
54900;BME280;40801;41.924;25.562;2023-02-11T04:01:40;101422.38;;;-5.25;57.60
54900;BME280;40801;41.924;25.562;2023-02-11T04:04:06;101430.94;;;-5.23;57.90
54900;BME280;40801;41.924;25.562;2023-02-11T04:06:31;101431.03;;;-5.15;57.14
54900;BME280;40801;41.924;25.562;2023-02-11T04:08:57;101431.34;;;-5.18;57.40
54900;BME280;40801;41.924;25.562;2023-02-11T04:11:22;101435.63;;;-5.17;57.31
54900;BME280;40801;41.924;25.562;2023-02-11T04:13:47;101430.66;;;-5.20;57.75
54900;BME280;40801;41.924;25.562;2023-02-11T04:16:13;101419.44;;;-5.22;57.40
54900;BME280;40801;41.924;25.562;2023-02-11T04:18:38;101432.44;;;-5.21;57.68
54900;BME280;40801;41.924;25.562;2023-02-11T04:21:04;101416.16;;;-5.24;57.22
54900;BME280;40801;41.924;25.562;2023-02-11T04:23:29;101417.38;;;-5.19;57.27
54900;BME280;40801;41.924;25.562;2023-02-11T04:25:54;101425.53;;;-5.22;57.36
54900;BME280;40801;41.924;25.562;2023-02-11T04:28:20;101422.06;;;-5.22;57.44
54900;BME280;40801;41.924;25.562;2023-02-11T04:30:45;101423.81;;;-5.13;56.74
54900;BME280;40801;41.924;25.562;2023-02-11T04:33:11;101421.34;;;-5.15;57.05
54900;BME280;40801;41.924;25.562;2023-02-11T04:35:36;101414.72;;;-5.19;57.13
54900;BME280;40801;41.924;25.562;2023-02-11T04:38:02;101415.47;;;-5.26;57.69
54900;BME280;40801;41.924;25.562;2023-02-11T04:40:27;101414.72;;;-5.37;58.21
54900;BME280;40801;41.924;25.562;2023-02-11T04:42:52;101422.63;;;-5.37;57.93
54900;BME280;40801;41.924;25.562;2023-02-11T04:45:18;101421.28;;;-5.41;58.53
54900;BME280;40801;41.924;25.562;2023-02-11T04:47:43;101421.44;;;-5.42;58.42
54900;BME280;40801;41.924;25.562;2023-02-11T04:50:09;101413.69;;;-5.44;58.07
54900;BME280;40801;41.924;25.562;2023-02-11T04:52:34;101417.97;;;-5.43;58.08
54900;BME280;40801;41.924;25.562;2023-02-11T04:55:00;101415.66;;;-5.46;57.54
54900;BME280;40801;41.924;25.562;2023-02-11T04:57:25;101417.00;;;-5.42;57.86
54900;BME280;40801;41.924;25.562;2023-02-11T04:59:51;101418.03;;;-5.35;56.92
54900;BME280;40801;41.924;25.562;2023-02-11T05:02:16;101418.09;;;-5.26;56.62
54900;BME280;40801;41.924;25.562;2023-02-11T05:04:41;101410.38;;;-5.28;56.65
54900;BME280;40801;41.924;25.562;2023-02-11T05:07:07;101413.66;;;-5.26;56.67
54900;BME280;40801;41.924;25.562;2023-02-11T05:09:32;101411.03;;;-5.26;56.84
54900;BME280;40801;41.924;25.562;2023-02-11T05:11:57;101419.53;;;-5.32;57.22
54900;BME280;40801;41.924;25.562;2023-02-11T05:14:23;101414.59;;;-5.35;57.30
54900;BME280;40801;41.924;25.562;2023-02-11T05:16:48;101412.25;;;-5.38;57.32
54900;BME280;40801;41.924;25.562;2023-02-11T05:19:14;101410.09;;;-5.43;57.52
54900;BME280;40801;41.924;25.562;2023-02-11T05:21:39;101410.91;;;-5.42;57.39
54900;BME280;40801;41.924;25.562;2023-02-11T05:24:06;101417.06;;;-5.34;57.01
54900;BME280;40801;41.924;25.562;2023-02-11T05:26:32;101421.72;;;-5.27;56.85
54900;BME280;40801;41.924;25.562;2023-02-11T05:28:58;101419.69;;;-5.34;57.00
54900;BME280;40801;41.924;25.562;2023-02-11T05:31:23;101418.03;;;-5.35;57.30
54900;BME280;40801;41.924;25.562;2023-02-11T05:33:48;101433.44;;;-5.40;57.18
54900;BME280;40801;41.924;25.562;2023-02-11T05:36:14;101429.47;;;-5.44;57.55
54900;BME280;40801;41.924;25.562;2023-02-11T05:38:41;101421.34;;;-5.33;56.45
54900;BME280;40801;41.924;25.562;2023-02-11T05:41:08;101429.22;;;-5.33;57.23
54900;BME280;40801;41.924;25.562;2023-02-11T05:43:34;101435.69;;;-5.27;57.09
54900;BME280;40801;41.924;25.562;2023-02-11T05:45:59;101435.69;;;-5.27;57.10
54900;BME280;40801;41.924;25.562;2023-02-11T05:48:25;101434.94;;;-5.19;56.49
54900;BME280;40801;41.924;25.562;2023-02-11T05:50:50;101434.66;;;-5.16;56.70
54900;BME280;40801;41.924;25.562;2023-02-11T05:53:16;101435.00;;;-5.11;55.93
54900;BME280;40801;41.924;25.562;2023-02-11T05:55:42;101426.88;;;-5.00;55.28
54900;BME280;40801;41.924;25.562;2023-02-11T05:58:07;101436.88;;;-5.04;56.01
54900;BME280;40801;41.924;25.562;2023-02-11T06:00:33;101438.66;;;-5.04;56.20
54900;BME280;40801;41.924;25.562;2023-02-11T06:02:59;101438.22;;;-5.00;56.44
54900;BME280;40801;41.924;25.562;2023-02-11T06:05:25;101443.00;;;-4.95;56.43
54900;BME280;40801;41.924;25.562;2023-02-11T06:07:50;101442.41;;;-4.89;56.25
54900;BME280;40801;41.924;25.562;2023-02-11T06:10:16;101440.97;;;-4.83;56.14
54900;BME280;40801;41.924;25.562;2023-02-11T06:12:41;101443.03;;;-4.69;55.59
54900;BME280;40801;41.924;25.562;2023-02-11T06:15:07;101444.22;;;-4.63;55.94
54900;BME280;40801;41.924;25.562;2023-02-11T06:17:33;101431.59;;;-4.60;55.94
54900;BME280;40801;41.924;25.562;2023-02-11T06:20:01;101430.81;;;-4.52;55.66
54900;BME280;40801;41.924;25.562;2023-02-11T06:22:27;101436.09;;;-4.44;55.46
54900;BME280;40801;41.924;25.562;2023-02-11T06:24:53;101432.41;;;-4.33;55.16
54900;BME280;40801;41.924;25.562;2023-02-11T06:27:18;101428.19;;;-4.18;55.06
54900;BME280;40801;41.924;25.562;2023-02-11T06:29:44;101439.25;;;-4.07;55.30
54900;BME280;40801;41.924;25.562;2023-02-11T06:32:10;101439.47;;;-4.00;55.58
54900;BME280;40801;41.924;25.562;2023-02-11T06:34:35;101430.09;;;-3.94;55.28
54900;BME280;40801;41.924;25.562;2023-02-11T06:37:02;101425.50;;;-3.76;54.69
54900;BME280;40801;41.924;25.562;2023-02-11T06:39:27;101426.53;;;-3.61;54.04
54900;BME280;40801;41.924;25.562;2023-02-11T06:41:53;101431.81;;;-3.53;54.23
54900;BME280;40801;41.924;25.562;2023-02-11T06:44:18;101421.59;;;-3.48;54.59
54900;BME280;40801;41.924;25.562;2023-02-11T06:46:44;101419.00;;;-3.39;54.44
54900;BME280;40801;41.924;25.562;2023-02-11T06:49:09;101435.03;;;-3.17;54.00
54900;BME280;40801;41.924;25.562;2023-02-11T06:51:34;101417.34;;;-3.08;54.12
54900;BME280;40801;41.924;25.562;2023-02-11T06:54:00;101423.78;;;-2.94;53.85
54900;BME280;40801;41.924;25.562;2023-02-11T06:56:25;101421.28;;;-2.79;53.71
54900;BME280;40801;41.924;25.562;2023-02-11T06:58:54;101420.88;;;-2.44;54.91
54900;BME280;40801;41.924;25.562;2023-02-11T07:01:21;101423.75;;;-1.52;54.75
54900;BME280;40801;41.924;25.562;2023-02-11T07:03:46;101416.34;;;-0.59;53.86
54900;BME280;40801;41.924;25.562;2023-02-11T07:06:15;101409.84;;;0.39;52.53
54900;BME280;40801;41.924;25.562;2023-02-11T07:08:41;101408.75;;;1.18;51.29
54900;BME280;40801;41.924;25.562;2023-02-11T07:11:13;101399.03;;;1.67;48.33
54900;BME280;40801;41.924;25.562;2023-02-11T07:13:38;101396.47;;;2.54;48.45
54900;BME280;40801;41.924;25.562;2023-02-11T07:16:05;101390.78;;;3.23;46.25
54900;BME280;40801;41.924;25.562;2023-02-11T07:18:32;101393.13;;;3.71;45.50
54900;BME280;40801;41.924;25.562;2023-02-11T07:20:57;101392.75;;;4.50;44.70
54900;BME280;40801;41.924;25.562;2023-02-11T07:23:23;101386.75;;;5.11;43.25
54900;BME280;40801;41.924;25.562;2023-02-11T07:25:48;101388.63;;;5.54;41.35
54900;BME280;40801;41.924;25.562;2023-02-11T07:28:13;101384.28;;;5.71;39.00
54900;BME280;40801;41.924;25.562;2023-02-11T07:30:39;101386.88;;;5.78;38.42
54900;BME280;40801;41.924;25.562;2023-02-11T07:33:04;101391.31;;;6.09;38.34
54900;BME280;40801;41.924;25.562;2023-02-11T07:35:30;101384.97;;;5.85;36.31
54900;BME280;40801;41.924;25.562;2023-02-11T07:37:55;101377.13;;;6.50;37.38
54900;BME280;40801;41.924;25.562;2023-02-11T07:40:21;101376.34;;;6.31;36.58
54900;BME280;40801;41.924;25.562;2023-02-11T07:42:46;101375.72;;;7.01;35.66
54900;BME280;40801;41.924;25.562;2023-02-11T07:45:11;101368.13;;;7.21;35.80
54900;BME280;40801;41.924;25.562;2023-02-11T07:47:38;101364.63;;;7.56;34.96
54900;BME280;40801;41.924;25.562;2023-02-11T07:50:03;101366.03;;;7.58;34.54
54900;BME280;40801;41.924;25.562;2023-02-11T07:52:29;101360.84;;;8.49;33.34
54900;BME280;40801;41.924;25.562;2023-02-11T07:54:56;101366.47;;;8.07;32.88
54900;BME280;40801;41.924;25.562;2023-02-11T07:57:21;101356.25;;;8.66;32.84
54900;BME280;40801;41.924;25.562;2023-02-11T07:59:46;101357.81;;;9.29;32.47
54900;BME280;40801;41.924;25.562;2023-02-11T08:02:12;101350.50;;;9.46;31.67
54900;BME280;40801;41.924;25.562;2023-02-11T08:04:37;101352.63;;;8.72;30.77
54900;BME280;40801;41.924;25.562;2023-02-11T08:07:03;101349.94;;;8.89;31.16
54900;BME280;40801;41.924;25.562;2023-02-11T08:09:29;101352.22;;;8.80;31.27
54900;BME280;40801;41.924;25.562;2023-02-11T08:11:54;101348.44;;;9.31;30.29
54900;BME280;40801;41.924;25.562;2023-02-11T08:14:20;101338.28;;;9.82;29.74
54900;BME280;40801;41.924;25.562;2023-02-11T08:16:45;101348.91;;;9.67;30.18
54900;BME280;40801;41.924;25.562;2023-02-11T08:19:13;101332.44;;;10.39;29.55
54900;BME280;40801;41.924;25.562;2023-02-11T08:21:39;101342.16;;;10.40;29.63
54900;BME280;40801;41.924;25.562;2023-02-11T08:24:06;101345.88;;;10.61;29.47
54900;BME280;40801;41.924;25.562;2023-02-11T08:26:32;101335.88;;;11.31;28.76
54900;BME280;40801;41.924;25.562;2023-02-11T08:29:00;101323.88;;;11.11;28.03
54900;BME280;40801;41.924;25.562;2023-02-11T08:31:34;101322.47;;;11.56;27.23
54900;BME280;40801;41.924;25.562;2023-02-11T08:34:00;101325.94;;;12.14;28.05
54900;BME280;40801;41.924;25.562;2023-02-11T08:36:34;101313.56;;;12.79;25.13
54900;BME280;40801;41.924;25.562;2023-02-11T08:39:02;101321.66;;;12.94;26.67
54900;BME280;40801;41.924;25.562;2023-02-11T08:41:29;101319.16;;;13.44;25.87
54900;BME280;40801;41.924;25.562;2023-02-11T08:43:54;101318.53;;;13.57;25.60
54900;BME280;40801;41.924;25.562;2023-02-11T08:46:20;101319.78;;;12.80;25.04
54900;BME280;40801;41.924;25.562;2023-02-11T08:48:46;101321.81;;;13.59;25.05
54900;BME280;40801;41.924;25.562;2023-02-11T08:51:18;101319.44;;;14.02;23.14
54900;BME280;40801;41.924;25.562;2023-02-11T08:53:44;101312.97;;;13.08;24.39
54900;BME280;40801;41.924;25.562;2023-02-11T08:56:11;101317.22;;;13.59;24.67
54900;BME280;40801;41.924;25.562;2023-02-11T08:58:37;101315.28;;;13.65;24.47
54900;BME280;40801;41.924;25.562;2023-02-11T09:01:13;101314.31;;;13.36;22.80
54900;BME280;40801;41.924;25.562;2023-02-11T09:03:40;101301.31;;;14.70;23.06
54900;BME280;40801;41.924;25.562;2023-02-11T09:06:06;101301.31;;;14.70;22.51
54900;BME280;40801;41.924;25.562;2023-02-11T09:08:36;101301.97;;;14.18;21.95
54900;BME280;40801;41.924;25.562;2023-02-11T09:11:03;101300.44;;;14.41;22.61
54900;BME280;40801;41.924;25.562;2023-02-11T09:13:29;101299.59;;;14.50;22.84
54900;BME280;40801;41.924;25.562;2023-02-11T09:15:55;101311.22;;;14.17;23.21
54900;BME280;40801;41.924;25.562;2023-02-11T09:18:20;101300.66;;;14.10;22.58
54900;BME280;40801;41.924;25.562;2023-02-11T09:20:45;101292.63;;;14.34;23.43
54900;BME280;40801;41.924;25.562;2023-02-11T09:23:11;101304.63;;;13.79;23.83
54900;BME280;40801;41.924;25.562;2023-02-11T09:25:40;101294.13;;;14.84;22.64
54900;BME280;40801;41.924;25.562;2023-02-11T09:28:06;101283.63;;;14.39;23.24
54900;BME280;40801;41.924;25.562;2023-02-11T09:30:32;101286.94;;;14.31;21.80
54900;BME280;40801;41.924;25.562;2023-02-11T09:32:58;101288.66;;;14.90;22.95
54900;BME280;40801;41.924;25.562;2023-02-11T09:35:23;101291.56;;;15.46;22.10
54900;BME280;40801;41.924;25.562;2023-02-11T09:37:48;101285.38;;;15.16;22.81
54900;BME280;40801;41.924;25.562;2023-02-11T09:40:15;101280.78;;;15.65;22.31
54900;BME280;40801;41.924;25.562;2023-02-11T09:42:59;101277.34;;;15.06;20.78
54900;BME280;40801;41.924;25.562;2023-02-11T09:45:29;101280.84;;;14.83;21.73
54900;BME280;40801;41.924;25.562;2023-02-11T09:48:19;101273.44;;;14.88;20.67
54900;BME280;40801;41.924;25.562;2023-02-11T09:50:54;101264.22;;;15.80;19.91
54900;BME280;40801;41.924;25.562;2023-02-11T09:53:31;101253.34;;;15.80;20.66
54900;BME280;40801;41.924;25.562;2023-02-11T09:56:02;101247.03;;;15.42;21.20
54900;BME280;40801;41.924;25.562;2023-02-11T09:58:35;101238.53;;;16.24;21.10
54900;BME280;40801;41.924;25.562;2023-02-11T10:01:38;101233.63;;;16.26;19.44
54900;BME280;40801;41.924;25.562;2023-02-11T10:12:52;101207.41;;;16.76;19.43
54900;BME280;40801;41.924;25.562;2023-02-11T10:23:26;101191.28;;;17.57;19.50
54900;BME280;40801;41.924;25.562;2023-02-11T10:25:53;101187.66;;;16.98;18.63
54900;BME280;40801;41.924;25.562;2023-02-11T10:28:30;101187.41;;;17.85;18.95
54900;BME280;40801;41.924;25.562;2023-02-11T10:31:07;101178.78;;;17.56;18.61
54900;BME280;40801;41.924;25.562;2023-02-11T10:36:16;101164.13;;;18.10;19.11
54900;BME280;40801;41.924;25.562;2023-02-11T10:38:42;101157.38;;;18.08;18.97
54900;BME280;40801;41.924;25.562;2023-02-11T10:41:21;101154.09;;;18.50;17.10
54900;BME280;40801;41.924;25.562;2023-02-11T10:43:50;101147.72;;;18.02;18.63
54900;BME280;40801;41.924;25.562;2023-02-11T10:46:18;101141.16;;;18.65;18.10
54900;BME280;40801;41.924;25.562;2023-02-11T10:48:48;101145.81;;;19.12;17.89
54900;BME280;40801;41.924;25.562;2023-02-11T10:53:46;101133.75;;;18.34;18.74
54900;BME280;40801;41.924;25.562;2023-02-11T10:56:27;101115.41;;;18.26;17.90
54900;BME280;40801;41.924;25.562;2023-02-11T10:59:01;101116.00;;;17.92;17.55
54900;BME280;40801;41.924;25.562;2023-02-11T11:04:39;101114.47;;;18.31;17.17
54900;BME280;40801;41.924;25.562;2023-02-11T11:07:15;101107.53;;;19.12;16.53
54900;BME280;40801;41.924;25.562;2023-02-11T11:17:36;101092.75;;;17.94;18.67
54900;BME280;40801;41.924;25.562;2023-02-11T11:20:23;101093.59;;;18.74;17.78
54900;BME280;40801;41.924;25.562;2023-02-11T11:23:38;101073.91;;;19.12;17.83
54900;BME280;40801;41.924;25.562;2023-02-11T11:25:42;101071.94;;;18.95;18.16
54900;BME280;40801;41.924;25.562;2023-02-11T11:28:20;101072.97;;;18.60;18.00
54900;BME280;40801;41.924;25.562;2023-02-11T11:30:46;101067.00;;;19.66;17.92
54900;BME280;40801;41.924;25.562;2023-02-11T11:33:28;101061.19;;;19.50;17.19
54900;BME280;40801;41.924;25.562;2023-02-11T11:38:21;101050.34;;;19.97;17.56
54900;BME280;40801;41.924;25.562;2023-02-11T11:41:26;101041.31;;;20.35;16.26
54900;BME280;40801;41.924;25.562;2023-02-11T11:46:35;101024.31;;;20.50;16.74
54900;BME280;40801;41.924;25.562;2023-02-11T11:49:28;101018.50;;;20.52;16.21
54900;BME280;40801;41.924;25.562;2023-02-11T11:52:28;101021.03;;;19.89;16.24
54900;BME280;40801;41.924;25.562;2023-02-11T11:55:21;101020.97;;;20.45;15.81
54900;BME280;40801;41.924;25.562;2023-02-11T11:57:48;101013.22;;;19.70;17.33
54900;BME280;40801;41.924;25.562;2023-02-11T12:00:30;101011.03;;;19.93;16.38
54900;BME280;40801;41.924;25.562;2023-02-11T12:11:41;100996.88;;;21.00;15.79
54900;BME280;40801;41.924;25.562;2023-02-11T12:22:04;100975.03;;;21.13;14.68
54900;BME280;40801;41.924;25.562;2023-02-11T12:33:47;100958.22;;;21.14;13.79
54900;BME280;40801;41.924;25.562;2023-02-11T12:55:10;100938.34;;;21.50;12.58
54900;BME280;40801;41.924;25.562;2023-02-11T12:57:42;100934.41;;;21.39;13.40
54900;BME280;40801;41.924;25.562;2023-02-11T13:00:54;100929.94;;;22.04;12.35
54900;BME280;40801;41.924;25.562;2023-02-11T13:03:27;100929.31;;;21.62;11.73
54900;BME280;40801;41.924;25.562;2023-02-11T13:06:02;100924.09;;;21.69;12.62
54900;BME280;40801;41.924;25.562;2023-02-11T13:08:31;100926.00;;;21.93;13.01
54900;BME280;40801;41.924;25.562;2023-02-11T13:11:01;100919.25;;;21.66;12.42
54900;BME280;40801;41.924;25.562;2023-02-11T13:13:34;100917.94;;;22.09;11.28
54900;BME280;40801;41.924;25.562;2023-02-11T13:16:03;100921.59;;;22.13;12.24
54900;BME280;40801;41.924;25.562;2023-02-11T13:23:54;100903.50;;;22.64;10.29
54900;BME280;40801;41.924;25.562;2023-02-11T13:26:51;100903.00;;;22.74;10.75
54900;BME280;40801;41.924;25.562;2023-02-11T13:35:33;100898.00;;;22.12;9.61
54900;BME280;40801;41.924;25.562;2023-02-11T13:38:22;100882.81;;;22.42;11.23
54900;BME280;40801;41.924;25.562;2023-02-11T13:41:03;100892.84;;;22.63;10.23
54900;BME280;40801;41.924;25.562;2023-02-11T13:43:31;100884.69;;;22.66;11.28
54900;BME280;40801;41.924;25.562;2023-02-11T13:46:05;100891.06;;;22.42;9.64
54900;BME280;40801;41.924;25.562;2023-02-11T13:48:36;100885.56;;;22.42;10.90
54900;BME280;40801;41.924;25.562;2023-02-11T13:51:05;100883.63;;;22.43;10.54
54900;BME280;40801;41.924;25.562;2023-02-11T13:53:56;100880.81;;;22.27;8.56
54900;BME280;40801;41.924;25.562;2023-02-11T13:56:38;100880.16;;;21.69;10.31
54900;BME280;40801;41.924;25.562;2023-02-11T14:05:18;100868.88;;;22.23;10.62
54900;BME280;40801;41.924;25.562;2023-02-11T14:10:52;100861.22;;;21.31;10.91
54900;BME280;40801;41.924;25.562;2023-02-11T14:13:35;100854.53;;;20.33;10.58
54900;BME280;40801;41.924;25.562;2023-02-11T14:16:09;100851.88;;;20.45;10.16
54900;BME280;40801;41.924;25.562;2023-02-11T14:29:26;100848.91;;;16.03;13.54
54900;BME280;40801;41.924;25.562;2023-02-11T14:32:01;100856.41;;;15.24;13.70
54900;BME280;40801;41.924;25.562;2023-02-11T14:42:46;100844.97;;;12.70;15.41
54900;BME280;40801;41.924;25.562;2023-02-11T14:45:19;100840.69;;;12.30;16.26
54900;BME280;40801;41.924;25.562;2023-02-11T14:50:24;100841.75;;;11.80;16.68
54900;BME280;40801;41.924;25.562;2023-02-11T14:52:51;100832.38;;;11.57;16.85
54900;BME280;40801;41.924;25.562;2023-02-11T14:55:33;100836.22;;;11.31;17.43
54900;BME280;40801;41.924;25.562;2023-02-11T14:58:21;100837.09;;;11.01;17.80
54900;BME280;40801;41.924;25.562;2023-02-11T15:01:00;100840.06;;;10.79;17.87
54900;BME280;40801;41.924;25.562;2023-02-11T15:03:33;100834.09;;;10.57;18.21
54900;BME280;40801;41.924;25.562;2023-02-11T15:06:22;100842.69;;;10.28;19.53
54900;BME280;40801;41.924;25.562;2023-02-11T15:08:52;100838.28;;;10.02;18.85
54900;BME280;40801;41.924;25.562;2023-02-11T15:11:20;100845.19;;;9.77;19.22
54900;BME280;40801;41.924;25.562;2023-02-11T15:13:47;100843.78;;;9.59;18.99
54900;BME280;40801;41.924;25.562;2023-02-11T15:16:16;100834.81;;;9.44;19.38
54900;BME280;40801;41.924;25.562;2023-02-11T15:18:47;100838.75;;;9.26;19.78
54900;BME280;40801;41.924;25.562;2023-02-11T15:21:20;100834.81;;;8.96;21.90
54900;BME280;40801;41.924;25.562;2023-02-11T15:24:04;100834.66;;;8.81;21.22
54900;BME280;40801;41.924;25.562;2023-02-11T15:26:32;100821.59;;;8.63;20.90
54900;BME280;40801;41.924;25.562;2023-02-11T15:28:58;100830.38;;;8.48;22.15
54900;BME280;40801;41.924;25.562;2023-02-11T15:31:25;100827.47;;;8.33;22.12